sensor_id;sensor_type;location;lat;lon;timestamp;temperature;humidity
5192;DHT22;2615;44.524;11.284;2024-03-29T17:14:46;18.50;56.80
5192;DHT22;2615;44.524;11.284;2024-03-29T17:17:14;18.30;57.40
5192;DHT22;2615;44.524;11.284;2024-03-29T17:19:40;18.30;58.10
5192;DHT22;2615;44.524;11.284;2024-03-29T17:22:08;18.50;58.90
5192;DHT22;2615;44.524;11.284;2024-03-29T17:24:34;18.60;59.40
5192;DHT22;2615;44.524;11.284;2024-03-29T17:27:01;18.70;59.80
5192;DHT22;2615;44.524;11.284;2024-03-29T17:29:28;18.80;60.50
5192;DHT22;2615;44.524;11.284;2024-03-29T17:31:57;18.80;60.70
5192;DHT22;2615;44.524;11.284;2024-03-29T17:34:23;18.90;61.10
5192;DHT22;2615;44.524;11.284;2024-03-29T17:36:50;19.00;61.60
5192;DHT22;2615;44.524;11.284;2024-03-29T17:39:17;19.00;61.80
5192;DHT22;2615;44.524;11.284;2024-03-29T17:41:45;19.00;62.00
5192;DHT22;2615;44.524;11.284;2024-03-29T17:44:12;19.00;62.40
5192;DHT22;2615;44.524;11.284;2024-03-29T17:46:40;19.00;62.70
5192;DHT22;2615;44.524;11.284;2024-03-29T17:49:07;19.00;62.80
5192;DHT22;2615;44.524;11.284;2024-03-29T17:51:35;19.00;63.10
5192;DHT22;2615;44.524;11.284;2024-03-29T17:54:02;19.00;63.20
5192;DHT22;2615;44.524;11.284;2024-03-29T17:56:29;19.10;64.20
5192;DHT22;2615;44.524;11.284;2024-03-29T17:58:55;19.10;63.70
5192;DHT22;2615;44.524;11.284;2024-03-29T18:01:24;19.10;63.70
5192;DHT22;2615;44.524;11.284;2024-03-29T18:03:50;19.10;63.70
5192;DHT22;2615;44.524;11.284;2024-03-29T18:06:20;19.10;63.80
5192;DHT22;2615;44.524;11.284;2024-03-29T18:08:46;19.10;63.70
5192;DHT22;2615;44.524;11.284;2024-03-29T18:11:14;19.10;64.00
5192;DHT22;2615;44.524;11.284;2024-03-29T18:13:41;19.10;64.20
5192;DHT22;2615;44.524;11.284;2024-03-29T18:16:09;19.10;64.10
5192;DHT22;2615;44.524;11.284;2024-03-29T18:18:35;19.00;63.90
5192;DHT22;2615;44.524;11.284;2024-03-29T18:21:03;18.80;63.60
5192;DHT22;2615;44.524;11.284;2024-03-29T18:23:30;18.80;63.70
5192;DHT22;2615;44.524;11.284;2024-03-29T18:25:58;18.60;63.60
5192;DHT22;2615;44.524;11.284;2024-03-29T18:28:24;18.50;63.50
5192;DHT22;2615;44.524;11.284;2024-03-29T18:30:53;18.40;63.50
5192;DHT22;2615;44.524;11.284;2024-03-29T18:33:19;18.40;63.70
5192;DHT22;2615;44.524;11.284;2024-03-29T18:35:47;18.30;63.70
5192;DHT22;2615;44.524;11.284;2024-03-29T18:38:13;18.20;63.70
5192;DHT22;2615;44.524;11.284;2024-03-29T18:40:42;18.10;63.70
5192;DHT22;2615;44.524;11.284;2024-03-29T18:43:08;18.10;63.70
5192;DHT22;2615;44.524;11.284;2024-03-29T18:45:38;18.00;63.80
5192;DHT22;2615;44.524;11.284;2024-03-29T18:48:05;17.90;63.80
5192;DHT22;2615;44.524;11.284;2024-03-29T18:50:33;17.80;63.90
5192;DHT22;2615;44.524;11.284;2024-03-29T18:52:59;17.70;64.00
5192;DHT22;2615;44.524;11.284;2024-03-29T18:55:26;17.60;64.10
5192;DHT22;2615;44.524;11.284;2024-03-29T18:57:55;17.60;64.20
5192;DHT22;2615;44.524;11.284;2024-03-29T19:00:22;17.50;64.20
5192;DHT22;2615;44.524;11.284;2024-03-29T19:02:51;17.50;64.20
5192;DHT22;2615;44.524;11.284;2024-03-29T19:05:18;17.40;64.10
5192;DHT22;2615;44.524;11.284;2024-03-29T19:07:44;17.30;64.20
5192;DHT22;2615;44.524;11.284;2024-03-29T19:10:12;17.30;64.30
5192;DHT22;2615;44.524;11.284;2024-03-29T19:12:38;17.20;64.30
5192;DHT22;2615;44.524;11.284;2024-03-29T19:15:07;17.20;64.50
5192;DHT22;2615;44.524;11.284;2024-03-29T19:17:34;17.20;64.50
5192;DHT22;2615;44.524;11.284;2024-03-29T19:20:01;17.10;64.50
5192;DHT22;2615;44.524;11.284;2024-03-29T19:22:27;17.00;64.50
5192;DHT22;2615;44.524;11.284;2024-03-29T19:24:54;17.00;64.70
5192;DHT22;2615;44.524;11.284;2024-03-29T19:27:20;17.00;65.40
5192;DHT22;2615;44.524;11.284;2024-03-29T19:29:49;16.90;64.70
5192;DHT22;2615;44.524;11.284;2024-03-29T19:32:20;16.90;64.70
5192;DHT22;2615;44.524;11.284;2024-03-29T19:34:47;16.80;64.70
5192;DHT22;2615;44.524;11.284;2024-03-29T19:37:13;16.80;64.80
5192;DHT22;2615;44.524;11.284;2024-03-29T19:39:41;16.70;64.80
5192;DHT22;2615;44.524;11.284;2024-03-29T19:42:07;16.70;64.90
5192;DHT22;2615;44.524;11.284;2024-03-29T19:44:34;16.70;65.10
5192;DHT22;2615;44.524;11.284;2024-03-29T19:47:00;16.70;65.10
5192;DHT22;2615;44.524;11.284;2024-03-29T19:49:29;16.70;65.90
5192;DHT22;2615;44.524;11.284;2024-03-29T19:51:56;16.60;65.10
5192;DHT22;2615;44.524;11.284;2024-03-29T19:54:23;16.60;65.10
5192;DHT22;2615;44.524;11.284;2024-03-29T19:56:49;16.60;65.10
5192;DHT22;2615;44.524;11.284;2024-03-29T19:59:16;16.60;65.30
5192;DHT22;2615;44.524;11.284;2024-03-29T20:01:42;16.60;65.40
5192;DHT22;2615;44.524;11.284;2024-03-29T20:04:10;16.60;65.40
5192;DHT22;2615;44.524;11.284;2024-03-29T20:06:37;16.60;65.50
5192;DHT22;2615;44.524;11.284;2024-03-29T20:09:04;16.60;65.50
5192;DHT22;2615;44.524;11.284;2024-03-29T20:11:32;16.50;65.50
5192;DHT22;2615;44.524;11.284;2024-03-29T20:13:59;16.50;65.70
5192;DHT22;2615;44.524;11.284;2024-03-29T20:16:25;16.50;65.60
5192;DHT22;2615;44.524;11.284;2024-03-29T20:18:52;16.50;65.70
5192;DHT22;2615;44.524;11.284;2024-03-29T20:21:21;16.50;65.70
5192;DHT22;2615;44.524;11.284;2024-03-29T20:23:50;16.50;65.70
5192;DHT22;2615;44.524;11.284;2024-03-29T20:26:16;16.50;65.70
5192;DHT22;2615;44.524;11.284;2024-03-29T20:28:43;16.50;65.80
5192;DHT22;2615;44.524;11.284;2024-03-29T20:31:09;16.50;65.80
5192;DHT22;2615;44.524;11.284;2024-03-29T20:33:36;16.50;65.90
5192;DHT22;2615;44.524;11.284;2024-03-29T20:36:05;16.60;66.10
5192;DHT22;2615;44.524;11.284;2024-03-29T20:38:32;16.50;66.00
5192;DHT22;2615;44.524;11.284;2024-03-29T20:41:00;16.50;66.10
5192;DHT22;2615;44.524;11.284;2024-03-29T20:43:27;16.50;66.10
5192;DHT22;2615;44.524;11.284;2024-03-29T20:45:53;16.50;66.10
5192;DHT22;2615;44.524;11.284;2024-03-29T20:48:20;16.50;66.20
5192;DHT22;2615;44.524;11.284;2024-03-29T20:50:56;16.50;66.20
5192;DHT22;2615;44.524;11.284;2024-03-29T20:53:24;16.50;66.20
5192;DHT22;2615;44.524;11.284;2024-03-29T20:55:50;16.50;66.20
5192;DHT22;2615;44.524;11.284;2024-03-29T20:58:18;16.50;66.30
5192;DHT22;2615;44.524;11.284;2024-03-29T21:00:45;16.50;66.40
5192;DHT22;2615;44.524;11.284;2024-03-29T21:03:12;16.50;66.40
5192;DHT22;2615;44.524;11.284;2024-03-29T21:05:56;16.50;66.40
5192;DHT22;2615;44.524;11.284;2024-03-29T21:08:24;16.50;66.40
5192;DHT22;2615;44.524;11.284;2024-03-29T21:10:51;16.50;66.50
5192;DHT22;2615;44.524;11.284;2024-03-29T21:13:20;16.50;66.50
5192;DHT22;2615;44.524;11.284;2024-03-29T21:15:47;16.50;66.60
5192;DHT22;2615;44.524;11.284;2024-03-29T21:18:14;16.50;66.60
5192;DHT22;2615;44.524;11.284;2024-03-29T21:20:40;16.50;66.60
5192;DHT22;2615;44.524;11.284;2024-03-29T21:23:09;16.50;66.60
5192;DHT22;2615;44.524;11.284;2024-03-29T21:25:35;16.50;66.70
5192;DHT22;2615;44.524;11.284;2024-03-29T21:28:03;16.50;66.70
5192;DHT22;2615;44.524;11.284;2024-03-29T21:30:31;16.50;66.70
5192;DHT22;2615;44.524;11.284;2024-03-29T21:32:59;16.50;66.70
5192;DHT22;2615;44.524;11.284;2024-03-29T21:35:25;16.50;66.70
5192;DHT22;2615;44.524;11.284;2024-03-29T21:37:54;16.50;66.80
5192;DHT22;2615;44.524;11.284;2024-03-29T21:40:21;16.60;66.90
5192;DHT22;2615;44.524;11.284;2024-03-29T21:42:48;16.50;66.90
5192;DHT22;2615;44.524;11.284;2024-03-29T21:45:15;16.50;66.90
5192;DHT22;2615;44.524;11.284;2024-03-29T21:47:43;16.50;66.90
5192;DHT22;2615;44.524;11.284;2024-03-29T21:50:09;16.50;67.00
5192;DHT22;2615;44.524;11.284;2024-03-29T21:52:37;16.50;67.00
5192;DHT22;2615;44.524;11.284;2024-03-29T21:55:03;16.50;67.00
5192;DHT22;2615;44.524;11.284;2024-03-29T21:57:31;16.50;67.10
5192;DHT22;2615;44.524;11.284;2024-03-29T21:59:57;16.50;67.10
5192;DHT22;2615;44.524;11.284;2024-03-29T22:02:24;16.50;67.10
5192;DHT22;2615;44.524;11.284;2024-03-29T22:04:52;16.50;67.20
5192;DHT22;2615;44.524;11.284;2024-03-29T22:07:19;16.50;67.20
5192;DHT22;2615;44.524;11.284;2024-03-29T22:09:45;16.40;67.20
5192;DHT22;2615;44.524;11.284;2024-03-29T22:12:12;16.50;67.30
5192;DHT22;2615;44.524;11.284;2024-03-29T22:14:39;16.50;67.40
5192;DHT22;2615;44.524;11.284;2024-03-29T22:17:06;16.40;67.30
5192;DHT22;2615;44.524;11.284;2024-03-29T22:19:32;16.40;67.40
5192;DHT22;2615;44.524;11.284;2024-03-29T22:22:01;16.40;67.40
5192;DHT22;2615;44.524;11.284;2024-03-29T22:24:27;16.30;67.40
5192;DHT22;2615;44.524;11.284;2024-03-29T22:26:54;16.40;67.60
5192;DHT22;2615;44.524;11.284;2024-03-29T22:29:20;16.30;67.50
5192;DHT22;2615;44.524;11.284;2024-03-29T22:31:47;16.30;67.50
5192;DHT22;2615;44.524;11.284;2024-03-29T22:34:14;16.30;67.60
5192;DHT22;2615;44.524;11.284;2024-03-29T22:36:41;16.30;67.70
5192;DHT22;2615;44.524;11.284;2024-03-29T22:39:09;16.30;67.70
5192;DHT22;2615;44.524;11.284;2024-03-29T22:41:36;16.30;67.80
5192;DHT22;2615;44.524;11.284;2024-03-29T22:44:02;16.30;67.80
5192;DHT22;2615;44.524;11.284;2024-03-29T22:46:29;16.30;67.90
5192;DHT22;2615;44.524;11.284;2024-03-29T22:48:55;16.30;67.90
5192;DHT22;2615;44.524;11.284;2024-03-29T22:51:22;16.30;68.00
5192;DHT22;2615;44.524;11.284;2024-03-29T22:53:49;16.30;68.10
5192;DHT22;2615;44.524;11.284;2024-03-29T22:56:18;16.30;68.20
5192;DHT22;2615;44.524;11.284;2024-03-29T22:58:45;16.30;68.10
5192;DHT22;2615;44.524;11.284;2024-03-29T23:01:12;16.20;68.00
5192;DHT22;2615;44.524;11.284;2024-03-29T23:03:38;16.20;68.10
5192;DHT22;2615;44.524;11.284;2024-03-29T23:06:06;16.20;68.20
5192;DHT22;2615;44.524;11.284;2024-03-29T23:08:32;16.20;68.30
5192;DHT22;2615;44.524;11.284;2024-03-29T23:10:59;16.20;68.30
5192;DHT22;2615;44.524;11.284;2024-03-29T23:13:27;16.10;68.30
5192;DHT22;2615;44.524;11.284;2024-03-29T23:15:55;16.10;68.30
5192;DHT22;2615;44.524;11.284;2024-03-29T23:18:24;16.10;68.40
5192;DHT22;2615;44.524;11.284;2024-03-29T23:20:52;16.10;68.40
5192;DHT22;2615;44.524;11.284;2024-03-29T23:23:18;16.00;68.40
5192;DHT22;2615;44.524;11.284;2024-03-29T23:25:46;16.00;68.50
5192;DHT22;2615;44.524;11.284;2024-03-29T23:28:13;15.90;68.40
5192;DHT22;2615;44.524;11.284;2024-03-29T23:30:44;15.90;68.50
5192;DHT22;2615;44.524;11.284;2024-03-29T23:33:11;15.90;68.60
5192;DHT22;2615;44.524;11.284;2024-03-29T23:35:38;15.90;68.70
5192;DHT22;2615;44.524;11.284;2024-03-29T23:38:05;15.80;68.60
5192;DHT22;2615;44.524;11.284;2024-03-29T23:40:34;15.80;68.60
5192;DHT22;2615;44.524;11.284;2024-03-29T23:43:00;15.80;68.70
5192;DHT22;2615;44.524;11.284;2024-03-29T23:45:28;15.80;68.80
5192;DHT22;2615;44.524;11.284;2024-03-29T23:47:55;15.80;68.90
5192;DHT22;2615;44.524;11.284;2024-03-29T23:50:23;15.80;68.90
5192;DHT22;2615;44.524;11.284;2024-03-29T23:52:49;15.70;68.90
5192;DHT22;2615;44.524;11.284;2024-03-29T23:55:16;15.80;68.90
5192;DHT22;2615;44.524;11.284;2024-03-29T23:57:45;15.70;68.90
